Purlear, NC (28665)

11:26 AM EDT on July 26, 2016 (GMT -0400)
Job's Cabin Township | | Change Station

Elev 3353 ft 36.28 °N, 81.39 °W | Updated 1 minute ago

Scattered Clouds
Scattered Clouds
79.6 °F
Feels Like 83 °F
N
2.0
Wind Variable Wind from NNW
Gusts 5.0 mph

Today
High -- | Low -- °F
--% Chance of Precip.
Yesterday
High -- | Low -- °F
Precip. -- in
Pressure 30.19 in
Visibility 10.0 miles
Clouds Scattered Clouds 2500 ft
Heat Index 83 °F
Dew Point 71 °F
Humidity 74%
Rainfall 0.00 in
Snow Depth Not available.
6:28 AM 8:35 PM
Waning Gibbous, 54% visible
METAR KGEV 261505Z AUTO 28005KT 10SM SCT025 26/20 A3019 RMK AO2 T02550195
Pressure 30.19 in
Visibility 10.0 miles
Clouds Scattered Clouds 2500 ft
Heat Index 83 °F
Dew Point 71 °F
Humidity 74%
Rainfall 0.00 in
Snow Depth Not available.
6:28 AM 8:35 PM
Waning Gibbous, 54% visible
METAR KGEV 261505Z AUTO 28005KT 10SM SCT025 26/20 A3019 RMK AO2 T02550195

10-Day Weather Forecast

Almanac

Astronomy

Jul. 26, 2016 Rise Set
Actual Time
Civil Twilight
Nautical Twilight
Astronomical Twilight
Moon
Length of Visible Light
Length of Day
Tomorrow will be .
, % of the Moon is Illuminated

Today's Extremes

State Highs State Lows

Community

WunderPhotos

Upload Photos

1,927,611 photos uploaded!

WunderBlog® & News

Nearby

Air Quality

  Air Quality AQ Index Pollutant
Not available.

Snow Depth

Station Depth Elevation

Earthquake Activity

City Distance Mag. Time & Date
Minimum magnitude displayed is 2.5.

Coastal Water Temperatures

Place Temperature

Stations

Nearby Weather Stations

Station Location Temp. Windchill Dew Point Humidity Wind Precip. Elev Updated Type
                   

Watches & Warnings

There are currently no watches in effect.